createdAt,value
2022-09-17T00:04:11.056Z,72.84
2022-09-17T00:19:41.731Z,72.99
2022-09-17T00:24:48.797Z,71.11
2022-09-17T00:35:03.828Z,73.36
2022-09-17T00:45:20.796Z,74.11
2022-09-17T00:50:28.096Z,73.87
2022-09-17T00:55:38.881Z,73.99
2022-09-17T01:17:08.295Z,74.20
2022-09-17T01:22:16.657Z,73.91
2022-09-17T01:27:51.951Z,75.95
2022-09-17T01:33:12.302Z,74.03
2022-09-17T01:49:13.956Z,75.38
2022-09-17T01:59:55.243Z,73.95
2022-09-17T02:05:06.045Z,74.85
2022-09-17T02:10:14.528Z,76.05
2022-09-17T02:20:44.711Z,75.05
2022-09-17T02:25:55.586Z,76.06
2022-09-17T02:31:03.759Z,75.31
2022-09-17T02:52:11.850Z,74.08
2022-09-17T02:57:21.364Z,75.26
2022-09-17T03:02:28.401Z,75.61
2022-09-17T03:07:37.606Z,76.61
2022-09-17T03:12:40.833Z,75.92
2022-09-17T03:17:43.538Z,77.31
2022-09-17T03:22:53.225Z,77.51
2022-09-17T03:27:56.330Z,76.37
2022-09-17T03:32:59.112Z,77.39
2022-09-17T03:38:07.145Z,77.51
2022-09-17T03:43:10.262Z,76.58
2022-09-17T03:48:12.973Z,77.82
2022-09-17T03:53:22.112Z,77.83
2022-09-17T03:58:24.824Z,76.86
2022-09-17T04:03:28.640Z,78.01
2022-09-17T04:32:18.429Z,77.87
2022-09-17T04:42:46.769Z,77.09
2022-09-17T04:58:39.449Z,78.29
2022-09-17T05:03:42.245Z,78.26
2022-09-17T05:08:45.822Z,80.05
2022-09-17T05:13:54.287Z,79.92
2022-09-17T05:18:58.689Z,78.98
2022-09-17T05:24:02.438Z,79.70
2022-09-17T05:35:46.549Z,76.84
2022-09-17T05:40:49.620Z,78.55
2022-09-17T06:06:04.527Z,78.25
2022-09-17T06:11:12.720Z,78.03
2022-09-17T06:23:15.877Z,76.05
2022-09-17T06:28:19.072Z,75.93
2022-09-17T06:33:22.324Z,76.34
2022-09-17T06:44:01.263Z,73.79
2022-09-17T06:49:04.069Z,73.40
2022-09-17T06:54:06.868Z,73.60
2022-09-17T07:15:32.276Z,69.78
2022-09-17T07:20:35.086Z,69.16
2022-09-17T07:25:38.005Z,67.37
2022-09-17T07:52:48.687Z,65.73
2022-09-17T08:13:23.534Z,66.82
2022-09-17T08:23:43.795Z,66.24
2022-09-17T08:28:47.722Z,65.49
2022-09-17T08:39:09.410Z,63.72
2022-09-17T09:01:46.680Z,61.61
2022-09-17T09:06:53.461Z,60.37
2022-09-17T09:17:29.745Z,58.08
2022-09-17T09:28:21.815Z,56.51
2022-09-17T09:33:29.719Z,57.29
2022-09-17T09:38:35.092Z,55.81
2022-09-17T09:44:03.136Z,54.73
2022-09-17T09:49:17.679Z,55.70
2022-09-17T09:54:36.095Z,55.46
2022-09-17T09:59:44.634Z,53.13
2022-09-17T10:04:52.722Z,54.55
2022-09-17T10:10:10.395Z,53.52
2022-09-17T10:15:28.756Z,52.96
2022-09-17T10:20:32.006Z,52.80
2022-09-17T10:25:36.294Z,51.04
2022-09-17T10:36:16.988Z,51.13
2022-09-17T10:41:22.176Z,51.21
2022-09-17T10:46:31.846Z,50.47
2022-09-17T10:51:40.412Z,50.36
2022-09-17T10:56:50.730Z,51.33
2022-09-17T11:13:05.434Z,49.12
2022-09-17T11:18:42.341Z,48.47
2022-09-17T11:24:16.619Z,45.96
2022-09-17T11:35:26.319Z,47.55
2022-09-17T11:45:40.307Z,45.94
2022-09-17T12:06:37.482Z,46.35
2022-09-17T12:22:28.275Z,47.97
2022-09-17T12:27:39.231Z,48.45
2022-09-17T12:33:03.292Z,48.82
2022-09-17T12:38:24.764Z,49.09
2022-09-17T12:43:44.292Z,49.61
2022-09-17T12:49:04.776Z,49.94
2022-09-17T12:54:26.418Z,50.40
2022-09-17T12:59:33.497Z,50.80
2022-09-17T13:05:06.408Z,50.81
2022-09-17T13:21:33.157Z,50.56
2022-09-17T13:26:39.654Z,51.32
2022-09-17T13:37:20.689Z,52.15
2022-09-17T13:42:26.935Z,51.44
2022-09-17T13:47:32.672Z,50.66
2022-09-17T13:58:00.298Z,50.10
2022-09-17T14:08:47.898Z,50.65
2022-09-17T14:13:58.760Z,50.29
2022-09-17T14:19:05.962Z,50.94
2022-09-17T14:24:23.780Z,50.81
2022-09-17T14:29:44.408Z,51.40
2022-09-17T14:34:47.699Z,51.11
2022-09-17T14:39:56.282Z,50.90
2022-09-17T14:45:02.378Z,51.91
2022-09-17T14:50:24.993Z,52.22
2022-09-17T14:55:33.454Z,52.79
2022-09-17T15:27:22.692Z,50.97
2022-09-17T15:38:18.903Z,51.76
2022-09-17T15:43:26.374Z,52.32
2022-09-17T15:48:37.355Z,52.67
2022-09-17T16:04:28.536Z,53.48
2022-09-17T16:09:43.212Z,54.06
2022-09-17T16:30:52.570Z,55.76
2022-09-17T16:46:35.530Z,56.85
2022-09-17T16:56:59.822Z,57.27
2022-09-17T17:02:03.810Z,57.64
2022-09-17T17:07:06.588Z,57.95
2022-09-17T17:12:14.854Z,58.34
2022-09-17T17:17:18.568Z,58.23
2022-09-17T17:22:21.476Z,58.88
2022-09-17T17:27:29.624Z,59.42
2022-09-17T17:32:32.377Z,59.13
2022-09-17T17:37:35.099Z,59.94
2022-09-17T17:42:43.206Z,60.19
2022-09-17T17:58:28.714Z,59.70
2022-09-17T18:03:31.448Z,60.41
2022-09-17T18:08:36.570Z,61.21
2022-09-17T18:13:45.541Z,61.16
2022-09-17T18:18:48.747Z,61.01
2022-09-17T18:23:52.112Z,61.62
2022-09-17T18:29:02.311Z,62.20
2022-09-17T18:34:12.239Z,61.86
2022-09-17T18:44:43.447Z,63.20
2022-09-17T18:49:46.181Z,62.66
2022-09-17T19:00:12.835Z,62.80
2022-09-17T19:05:16.389Z,63.32
2022-09-17T19:10:20.275Z,65.28
2022-09-17T19:20:46.940Z,64.37
2022-09-17T19:36:31.248Z,64.75
2022-09-17T19:46:52.993Z,65.60
2022-09-17T19:51:55.896Z,66.97
2022-09-17T19:56:58.695Z,68.29
2022-09-17T20:02:08.053Z,68.64
2022-09-17T20:07:10.942Z,67.47
2022-09-17T20:12:13.669Z,69.14
2022-09-17T20:17:21.772Z,69.36
2022-09-17T20:22:24.788Z,68.67
2022-09-17T20:27:27.663Z,69.92
2022-09-17T20:32:37.133Z,70.17
2022-09-17T20:43:03.103Z,70.42
2022-09-17T20:48:11.380Z,70.52
2022-09-17T20:53:14.312Z,69.75
2022-09-17T20:58:17.151Z,71.26
2022-09-17T21:03:25.228Z,71.19
2022-09-17T21:08:28.356Z,70.08
2022-09-17T21:13:31.459Z,71.50
2022-09-17T21:18:40.005Z,71.27
2022-09-17T21:23:43.812Z,69.94
2022-09-17T21:28:50.085Z,71.53
2022-09-17T21:34:01.638Z,71.25
2022-09-17T21:55:27.139Z,70.35
2022-09-17T22:00:32.278Z,70.45
2022-09-17T22:05:36.286Z,71.56
2022-09-17T22:10:45.458Z,71.61
2022-09-17T22:58:51.279Z,70.90
2022-09-17T23:10:36.570Z,69.40
2022-09-17T23:15:40.270Z,71.00
2022-09-17T23:26:04.060Z,73.65
2022-09-17T23:31:11.549Z,72.31
2022-09-17T23:41:39.089Z,72.21
2022-09-17T23:52:07.320Z,72.34
2022-09-17T23:57:10.212Z,73.68
